createdAt,value
2023-04-18T00:00:51.538Z,31.30
2023-04-18T00:01:51.656Z,31.30
2023-04-18T00:02:51.774Z,31.26
2023-04-18T00:03:51.945Z,31.26
2023-04-18T00:04:51.818Z,31.25
2023-04-18T00:05:51.689Z,31.21
2023-04-18T00:06:51.730Z,31.22
2023-04-18T00:07:51.756Z,31.20
2023-04-18T00:08:51.793Z,31.18
2023-04-18T00:09:51.835Z,31.19
2023-04-18T00:10:51.944Z,31.19
2023-04-18T00:11:51.915Z,31.18
2023-04-18T00:12:51.925Z,31.19
2023-04-18T00:13:51.971Z,31.20
2023-04-18T00:14:52.003Z,31.18
2023-04-18T00:15:52.053Z,31.19
2023-04-18T00:16:52.155Z,31.18
2023-04-18T00:17:52.223Z,31.19
2023-04-18T00:18:52.161Z,31.18
2023-04-18T00:19:52.193Z,31.17
2023-04-18T00:20:52.227Z,31.16
2023-04-18T00:21:52.275Z,31.17
2023-04-18T00:22:52.311Z,31.18
2023-04-18T00:23:52.351Z,31.18
2023-04-18T00:24:52.387Z,31.16
2023-04-18T00:25:52.484Z,31.18
2023-04-18T00:26:52.487Z,31.19
2023-04-18T00:27:52.498Z,31.18
2023-04-18T00:28:52.535Z,31.15
2023-04-18T00:29:52.576Z,31.17
2023-04-18T00:30:52.697Z,31.13
2023-04-18T00:31:52.653Z,31.16
2023-04-18T00:32:52.722Z,31.16
2023-04-18T00:33:52.746Z,31.15
2023-04-18T00:34:52.781Z,31.17
2023-04-18T00:35:52.794Z,31.17
2023-04-18T00:36:52.833Z,31.15
2023-04-18T00:37:52.874Z,31.14
2023-04-18T00:38:52.922Z,31.14
2023-04-18T00:39:52.955Z,31.14
2023-04-18T00:40:52.991Z,31.16
2023-04-18T00:41:53.026Z,31.14
2023-04-18T00:42:53.077Z,31.14
2023-04-18T00:43:53.104Z,31.13
2023-04-18T00:44:53.129Z,31.12
2023-04-18T00:45:53.208Z,31.12
2023-04-18T00:46:53.200Z,31.12
2023-04-18T00:47:53.291Z,31.14
2023-04-18T00:48:53.270Z,31.12
2023-04-18T00:49:53.300Z,31.14
2023-04-18T00:50:53.328Z,31.12
2023-04-18T00:51:53.367Z,31.13
2023-04-18T00:52:53.399Z,31.14
2023-04-18T00:53:53.443Z,31.13
2023-04-18T00:54:53.475Z,31.12
2023-04-18T00:55:53.530Z,31.13
2023-04-18T00:56:53.551Z,31.12
2023-04-18T00:57:53.576Z,31.12
2023-04-18T00:58:53.627Z,31.11
2023-04-18T00:59:53.655Z,31.11
2023-04-18T01:00:53.673Z,31.10
2023-04-18T01:01:53.854Z,31.13
2023-04-18T01:02:54.061Z,31.11
2023-04-18T01:03:53.865Z,31.14
2023-04-18T01:04:53.803Z,31.11
2023-04-18T01:05:53.836Z,31.10
2023-04-18T01:06:53.865Z,31.09
2023-04-18T01:07:53.892Z,31.10
2023-04-18T01:08:53.925Z,31.10
2023-04-18T01:09:53.963Z,31.10
2023-04-18T01:10:53.002Z,31.13
2023-04-18T01:11:54.023Z,31.10
2023-04-18T01:12:54.058Z,31.11
2023-04-18T01:13:54.083Z,31.09
2023-04-18T01:14:54.137Z,31.10
2023-04-18T01:15:54.177Z,31.10
2023-04-18T01:16:54.186Z,31.12
2023-04-18T01:17:54.264Z,31.10
2023-04-18T01:18:54.256Z,31.10
2023-04-18T01:19:54.273Z,31.09
2023-04-18T01:20:54.309Z,31.11
2023-04-18T01:21:54.331Z,31.10
2023-04-18T01:22:54.377Z,31.08
2023-04-18T01:23:54.409Z,31.09
2023-04-18T01:24:54.433Z,31.09
2023-04-18T01:25:54.470Z,31.08
2023-04-18T01:26:54.494Z,31.08
2023-04-18T01:27:54.523Z,31.08
2023-04-18T01:28:54.550Z,31.10
2023-04-18T01:29:54.586Z,31.08
2023-04-18T01:30:54.742Z,31.09
2023-04-18T01:31:54.637Z,31.08
2023-04-18T01:32:54.737Z,31.08
2023-04-18T01:33:54.706Z,31.10
2023-04-18T01:34:54.743Z,31.09
2023-04-18T01:35:54.782Z,31.07
2023-04-18T01:36:54.805Z,31.06
2023-04-18T01:37:54.844Z,31.10
2023-04-18T01:38:54.886Z,31.05
2023-04-18T01:39:54.917Z,31.06
2023-04-18T01:40:54.955Z,31.08
2023-04-18T01:41:54.989Z,31.07
2023-04-18T01:42:55.012Z,31.07
2023-04-18T01:43:55.049Z,31.05
2023-04-18T01:44:55.092Z,31.06
2023-04-18T01:45:55.116Z,31.06
2023-04-18T01:46:55.285Z,31.06
2023-04-18T01:47:55.234Z,31.06
2023-04-18T01:48:55.228Z,31.06
2023-04-18T01:49:55.269Z,31.07
2023-04-18T01:50:55.316Z,31.05
2023-04-18T01:51:55.341Z,31.06
2023-04-18T01:52:55.381Z,31.06
2023-04-18T01:53:55.415Z,31.04
2023-04-18T01:54:55.460Z,31.06
2023-04-18T01:55:55.492Z,31.05
2023-04-18T01:56:55.525Z,31.05
2023-04-18T01:57:55.550Z,31.05
2023-04-18T01:58:55.577Z,31.04
2023-04-18T01:59:55.621Z,31.04
2023-04-18T02:00:55.713Z,31.05
2023-04-18T02:01:55.720Z,31.05
2023-04-18T02:02:55.822Z,31.05
2023-04-18T02:03:56.038Z,31.04
2023-04-18T02:04:56.657Z,31.04
2023-04-18T02:05:55.828Z,31.03
2023-04-18T02:06:55.868Z,31.05
2023-04-18T02:07:55.892Z,31.05
2023-04-18T02:08:55.916Z,31.04
2023-04-18T02:09:55.957Z,31.06
2023-04-18T02:10:55.989Z,31.02
2023-04-18T02:11:56.017Z,31.03
2023-04-18T02:12:56.062Z,31.04
2023-04-18T02:13:56.087Z,31.04
2023-04-18T02:14:56.122Z,31.01
2023-04-18T02:15:56.156Z,31.04
2023-04-18T02:16:56.236Z,31.01
2023-04-18T02:17:56.230Z,31.03
2023-04-18T02:18:56.267Z,31.04
2023-04-18T02:19:56.275Z,31.01
2023-04-18T02:20:56.305Z,31.02
2023-04-18T02:21:56.337Z,31.06
2023-04-18T02:22:56.363Z,31.03
2023-04-18T02:23:56.396Z,31.05
2023-04-18T02:24:56.429Z,31.04
2023-04-18T02:25:56.454Z,31.00
2023-04-18T02:26:56.488Z,31.05
2023-04-18T02:27:56.517Z,31.03
2023-04-18T02:28:56.557Z,31.03
2023-04-18T02:29:56.587Z,31.02
2023-04-18T02:30:56.622Z,31.05
2023-04-18T02:31:56.700Z,31.04
2023-04-18T02:32:56.761Z,31.01
2023-04-18T02:33:56.697Z,31.03
2023-04-18T02:34:56.748Z,31.04
2023-04-18T02:35:56.751Z,31.01
2023-04-18T02:36:56.785Z,31.04
2023-04-18T02:37:56.805Z,31.03
2023-04-18T02:38:56.834Z,31.02
2023-04-18T02:39:56.881Z,31.03
2023-04-18T02:40:56.899Z,31.02
2023-04-18T02:41:56.924Z,31.02
2023-04-18T02:42:56.951Z,31.02
2023-04-18T02:43:56.979Z,31.02
2023-04-18T02:44:57.025Z,31.02
2023-04-18T02:45:57.090Z,31.04
2023-04-18T02:46:57.078Z,31.03
2023-04-18T02:47:57.167Z,31.02
2023-04-18T02:48:57.144Z,31.01
2023-04-18T02:49:57.182Z,31.00
2023-04-18T02:50:57.235Z,31.01
2023-04-18T02:51:57.257Z,31.00
2023-04-18T02:52:57.280Z,31.00
2023-04-18T02:53:57.317Z,30.99
2023-04-18T02:54:57.347Z,30.99
2023-04-18T02:55:57.414Z,31.00
2023-04-18T02:56:57.440Z,31.00
2023-04-18T02:57:57.504Z,31.01
2023-04-18T02:58:57.490Z,30.99
2023-04-18T02:59:57.516Z,30.99
2023-04-18T03:00:57.576Z,31.01
2023-04-18T03:01:57.601Z,30.99
2023-04-18T03:02:57.810Z,31.00
2023-04-18T03:03:57.634Z,31.02
2023-04-18T03:04:57.717Z,31.00
2023-04-18T03:05:57.700Z,31.01
2023-04-18T03:06:57.760Z,31.00
2023-04-18T03:07:57.771Z,31.01
2023-04-18T03:08:57.801Z,30.99
2023-04-18T03:09:57.842Z,31.00
2023-04-18T03:10:57.853Z,30.97
2023-04-18T03:11:57.899Z,30.98
2023-04-18T03:12:57.933Z,31.01
2023-04-18T03:13:57.969Z,31.00
2023-04-18T03:14:58.010Z,31.00
2023-04-18T03:15:58.087Z,31.00
2023-04-18T03:16:58.077Z,30.98
2023-04-18T03:17:58.137Z,31.01
2023-04-18T03:18:58.167Z,30.99
2023-04-18T03:19:58.197Z,30.98
2023-04-18T03:20:58.220Z,31.01
2023-04-18T03:21:58.259Z,30.99
2023-04-18T03:22:58.313Z,31.01
2023-04-18T03:23:58.319Z,31.01
2023-04-18T03:24:58.346Z,30.98
2023-04-18T03:25:58.380Z,30.98
2023-04-18T03:26:58.414Z,31.01
2023-04-18T03:27:58.440Z,31.00
2023-04-18T03:28:58.472Z,30.99
2023-04-18T03:29:58.500Z,31.00
2023-04-18T03:30:58.551Z,30.98
2023-04-18T03:31:58.574Z,31.00
2023-04-18T03:32:58.681Z,31.01
2023-04-18T03:33:58.633Z,30.99
2023-04-18T03:34:58.677Z,31.00
2023-04-18T03:35:58.703Z,30.98
2023-04-18T03:36:58.735Z,30.99
2023-04-18T03:37:58.777Z,31.01
2023-04-18T03:38:58.846Z,30.99
2023-04-18T03:39:58.859Z,30.98
2023-04-18T03:40:58.906Z,30.98
2023-04-18T03:41:58.931Z,30.97
2023-04-18T03:42:58.973Z,31.00
2023-04-18T03:43:59.009Z,30.99
2023-04-18T03:44:59.054Z,31.00
2023-04-18T03:45:59.102Z,30.99
2023-04-18T03:46:59.139Z,31.00
2023-04-18T03:47:59.258Z,31.00
2023-04-18T03:48:59.200Z,30.98
2023-04-18T03:49:59.236Z,30.99
2023-04-18T03:50:59.284Z,30.99
2023-04-18T03:51:59.311Z,30.99
2023-04-18T03:52:59.356Z,30.99
2023-04-18T03:53:59.389Z,30.96
2023-04-18T03:54:59.447Z,30.98
2023-04-18T03:55:59.462Z,30.99
2023-04-18T03:56:59.524Z,30.99
2023-04-18T03:57:59.535Z,30.98
2023-04-18T03:58:59.578Z,30.99
2023-04-18T03:59:59.604Z,30.99
2023-04-18T04:00:59.647Z,31.00
2023-04-18T04:01:59.811Z,30.98
2023-04-18T04:02:59.927Z,31.00
2023-04-18T04:03:59.866Z,30.99
2023-04-18T04:04:59.821Z,30.98
2023-04-18T04:05:59.818Z,30.98
2023-04-18T04:06:59.845Z,30.98
2023-04-18T04:07:59.875Z,30.97
2023-04-18T04:08:59.940Z,30.99
2023-04-18T04:09:59.928Z,30.98
2023-04-18T04:10:59.990Z,30.99
2023-04-18T04:11:59.994Z,31.01
2023-04-18T04:13:00.023Z,30.98
2023-04-18T04:14:00.069Z,31.01
2023-04-18T04:15:00.104Z,30.99
2023-04-18T04:16:00.242Z,30.99
2023-04-18T04:17:00.182Z,30.98
2023-04-18T04:18:00.244Z,30.99
2023-04-18T04:19:00.197Z,30.99
2023-04-18T04:20:00.237Z,30.98
2023-04-18T04:21:00.267Z,30.99
2023-04-18T04:22:00.293Z,30.98
2023-04-18T04:23:00.327Z,30.99
2023-04-18T04:24:00.365Z,30.99
2023-04-18T04:25:00.392Z,30.99
2023-04-18T04:26:00.417Z,31.00
2023-04-18T04:27:00.526Z,31.00
2023-04-18T04:28:00.477Z,30.99
2023-04-18T04:29:00.517Z,30.99
2023-04-18T04:30:00.553Z,30.98
2023-04-18T04:31:00.577Z,30.98
2023-04-18T04:32:00.625Z,30.99
2023-04-18T04:33:00.667Z,30.97
2023-04-18T04:34:00.645Z,30.99
2023-04-18T04:35:00.685Z,30.98
2023-04-18T04:36:00.711Z,30.98
2023-04-18T04:37:00.752Z,30.99
2023-04-18T04:38:00.780Z,30.99
2023-04-18T04:39:00.803Z,30.98
2023-04-18T04:40:00.838Z,30.97
2023-04-18T04:41:00.870Z,30.98
2023-04-18T04:42:00.915Z,30.99
2023-04-18T04:43:00.950Z,30.98
2023-04-18T04:44:00.949Z,30.98
2023-04-18T04:45:01.014Z,30.97
2023-04-18T04:46:01.041Z,30.94
2023-04-18T04:47:01.037Z,30.96
2023-04-18T04:48:01.102Z,30.97
2023-04-18T04:49:01.135Z,30.96
2023-04-18T04:50:01.148Z,30.96
2023-04-18T04:51:01.166Z,30.97
2023-04-18T04:52:02.065Z,30.97
2023-04-18T04:53:01.228Z,30.97
2023-04-18T04:54:01.301Z,30.95
2023-04-18T04:55:01.288Z,30.97
2023-04-18T04:56:01.319Z,30.95
2023-04-18T04:57:01.352Z,30.97
2023-04-18T04:58:01.374Z,30.96
2023-04-18T04:59:01.528Z,30.97
2023-04-18T05:00:01.463Z,30.94
2023-04-18T05:01:01.484Z,30.96
2023-04-18T05:02:01.550Z,30.95
2023-04-18T05:03:01.722Z,30.95
2023-04-18T05:04:01.719Z,30.94
2023-04-18T05:05:01.688Z,30.95
2023-04-18T05:06:01.616Z,30.95
2023-04-18T05:07:01.652Z,30.96
2023-04-18T05:08:01.690Z,30.95
2023-04-18T05:09:01.708Z,30.95
2023-04-18T05:10:01.746Z,30.94
2023-04-18T05:11:01.761Z,30.96
2023-04-18T05:12:02.251Z,30.95
2023-04-18T05:13:01.819Z,30.95
2023-04-18T05:14:01.852Z,30.93
2023-04-18T05:15:01.916Z,30.95
2023-04-18T05:16:01.977Z,30.96
2023-04-18T05:17:02.161Z,30.94
2023-04-18T05:18:02.285Z,30.94
2023-04-18T05:19:02.009Z,30.95
2023-04-18T05:20:02.068Z,31.01
2023-04-18T05:21:02.085Z,30.98
2023-04-18T05:22:02.099Z,31.06
2023-04-18T05:23:02.122Z,31.06
2023-04-18T05:24:03.147Z,31.04
2023-04-18T05:25:02.218Z,31.05
2023-04-18T05:26:02.239Z,31.01
2023-04-18T05:27:02.236Z,30.98
2023-04-18T05:28:02.267Z,31.00
2023-04-18T05:29:02.312Z,31.01
2023-04-18T05:30:02.332Z,31.00
2023-04-18T05:31:02.879Z,31.00
2023-04-18T05:32:02.426Z,30.99
2023-04-18T05:33:02.474Z,31.02
2023-04-18T05:34:02.454Z,31.10
2023-04-18T05:35:02.513Z,31.08
2023-04-18T05:36:02.735Z,31.10
2023-04-18T05:37:02.581Z,31.13
2023-04-18T05:38:02.746Z,31.14
2023-04-18T05:39:02.634Z,31.18
2023-04-18T05:40:02.755Z,31.17
2023-04-18T05:41:02.710Z,31.18
2023-04-18T05:42:02.730Z,31.20
2023-04-18T05:43:02.762Z,31.20
2023-04-18T05:44:05.612Z,31.20
2023-04-18T05:45:02.810Z,31.19
2023-04-18T05:46:02.843Z,31.22
2023-04-18T05:47:02.919Z,31.22
2023-04-18T05:48:03.270Z,31.25
2023-04-18T05:49:03.245Z,31.25
2023-04-18T05:50:03.256Z,31.28
2023-04-18T05:51:02.819Z,31.29
2023-04-18T05:52:02.846Z,31.33
2023-04-18T05:53:02.846Z,31.35
2023-04-18T05:54:03.257Z,31.41
2023-04-18T05:55:03.380Z,31.39
2023-04-18T05:56:02.868Z,31.41
2023-04-18T05:57:04.547Z,31.43
2023-04-18T05:58:03.251Z,31.51
2023-04-18T05:59:02.887Z,31.88
2023-04-18T06:00:03.279Z,31.89
2023-04-18T06:01:02.947Z,31.79
2023-04-18T06:02:02.960Z,31.86
2023-04-18T06:03:03.594Z,31.85
2023-04-18T06:04:03.186Z,32.93
2023-04-18T06:05:03.261Z,32.87
2023-04-18T06:06:03.244Z,32.92
2023-04-18T06:07:03.037Z,32.98
2023-04-18T06:08:03.274Z,33.06
2023-04-18T06:09:03.059Z,33.08
2023-04-18T06:10:03.270Z,33.11
2023-04-18T06:11:03.134Z,33.07
2023-04-18T06:12:03.105Z,32.95
2023-04-18T06:13:03.252Z,32.91
2023-04-18T06:14:03.715Z,32.84
2023-04-18T06:15:03.859Z,32.77
2023-04-18T06:16:03.899Z,32.74
2023-04-18T06:17:03.587Z,32.71
2023-04-18T06:18:03.670Z,32.67
2023-04-18T06:19:03.900Z,32.64
2023-04-18T06:20:04.293Z,32.63
2023-04-18T06:21:03.764Z,32.57
2023-04-18T06:22:03.960Z,32.57
2023-04-18T06:23:03.995Z,32.55
2023-04-18T06:24:04.301Z,32.51
2023-04-18T06:25:04.085Z,32.50
2023-04-18T06:26:04.135Z,32.46
2023-04-18T06:27:03.790Z,32.44
2023-04-18T06:28:03.753Z,32.44
2023-04-18T06:29:03.928Z,32.43
2023-04-18T06:30:04.026Z,32.40
2023-04-18T06:31:04.047Z,32.39
2023-04-18T06:32:04.470Z,32.37
2023-04-18T06:33:04.203Z,32.36
2023-04-18T06:34:04.163Z,32.33
2023-04-18T06:35:04.295Z,32.32
2023-04-18T06:36:04.763Z,32.31
2023-04-18T06:37:03.860Z,32.29
2023-04-18T06:38:03.855Z,32.28
2023-04-18T06:39:04.271Z,32.26
2023-04-18T06:40:03.916Z,32.25
2023-04-18T06:41:03.946Z,32.23
2023-04-18T06:42:03.979Z,32.27
2023-04-18T06:43:04.001Z,32.25
2023-04-18T06:44:04.752Z,32.25
2023-04-18T06:45:04.080Z,32.22
2023-04-18T06:46:04.135Z,32.20
2023-04-18T06:47:04.277Z,32.17
2023-04-18T06:48:04.267Z,32.17
2023-04-18T06:49:04.167Z,32.13
2023-04-18T06:50:04.275Z,32.14
2023-04-18T06:51:04.341Z,32.11
2023-04-18T06:52:04.242Z,32.08
2023-04-18T06:53:04.771Z,32.09
2023-04-18T06:54:04.300Z,32.09
2023-04-18T06:55:04.769Z,32.07
2023-04-18T06:56:04.349Z,32.04
2023-04-18T06:57:04.375Z,32.03
2023-04-18T06:58:04.399Z,32.05
2023-04-18T06:59:04.774Z,32.02
2023-04-18T07:00:04.777Z,32.02
2023-04-18T07:01:04.829Z,32.03
2023-04-18T07:02:04.543Z,32.01
2023-04-18T07:03:04.817Z,32.02
2023-04-18T07:04:04.857Z,32.01
2023-04-18T07:05:04.573Z,31.99
2023-04-18T07:06:05.312Z,31.96
2023-04-18T07:07:04.723Z,31.97
2023-04-18T07:08:04.801Z,31.97
2023-04-18T07:09:04.771Z,31.96
2023-04-18T07:10:04.712Z,31.96
2023-04-18T07:11:04.722Z,31.94
2023-04-18T07:12:04.749Z,31.94
2023-04-18T07:13:04.760Z,31.90
2023-04-18T07:14:04.779Z,31.91
2023-04-18T07:15:04.813Z,31.91
2023-04-18T07:16:04.819Z,31.88
2023-04-18T07:17:04.936Z,31.89
2023-04-18T07:18:04.953Z,31.90
2023-04-18T07:19:04.876Z,31.89
2023-04-18T07:20:05.292Z,31.85
2023-04-18T07:21:04.914Z,31.85
2023-04-18T07:22:04.927Z,31.82
2023-04-18T07:23:05.069Z,31.83
2023-04-18T07:24:05.286Z,31.82
2023-04-18T07:25:04.972Z,31.79
2023-04-18T07:26:04.992Z,31.80
2023-04-18T07:27:05.009Z,31.77
2023-04-18T07:28:05.274Z,31.77
2023-04-18T07:29:05.279Z,31.79
2023-04-18T07:30:05.060Z,31.77
2023-04-18T07:31:05.087Z,31.76
2023-04-18T07:32:07.513Z,31.74
2023-04-18T07:33:05.340Z,31.75
2023-04-18T07:34:05.313Z,31.76
2023-04-18T07:35:05.148Z,31.73
2023-04-18T07:36:05.121Z,31.74
2023-04-18T07:37:05.155Z,31.72
2023-04-18T07:38:05.142Z,31.72
2023-04-18T07:39:05.626Z,31.80
2023-04-18T07:40:05.330Z,31.84
2023-04-18T07:41:05.168Z,31.85
2023-04-18T07:42:05.137Z,31.91
2023-04-18T07:43:05.151Z,31.93
2023-04-18T07:44:05.294Z,31.93
2023-04-18T07:45:05.161Z,31.97
2023-04-18T07:46:05.206Z,32.02
2023-04-18T07:47:05.163Z,32.07
2023-04-18T07:48:05.203Z,32.10
2023-04-18T07:49:05.299Z,32.15
2023-04-18T07:50:05.277Z,32.17
2023-04-18T07:51:05.310Z,32.37
2023-04-18T07:52:05.194Z,32.50
2023-04-18T07:53:05.218Z,32.63
2023-04-18T07:54:05.294Z,32.73
2023-04-18T07:55:05.386Z,32.73
2023-04-18T07:56:05.293Z,32.87
2023-04-18T07:57:05.207Z,32.97
2023-04-18T07:58:05.206Z,33.18
2023-04-18T07:59:05.202Z,33.23
2023-04-18T08:00:05.242Z,33.46
2023-04-18T08:01:05.303Z,33.42
2023-04-18T08:02:05.297Z,33.59
2023-04-18T08:03:05.575Z,33.59
2023-04-18T08:04:05.441Z,33.68
2023-04-18T08:05:05.506Z,33.81
2023-04-18T08:06:05.819Z,33.88
2023-04-18T08:07:05.512Z,34.07
2023-04-18T08:08:05.551Z,34.08
2023-04-18T08:09:05.807Z,34.19
2023-04-18T08:10:06.097Z,34.27
2023-04-18T08:11:05.745Z,34.37
2023-04-18T08:12:05.711Z,34.37
2023-04-18T08:13:05.770Z,34.45
2023-04-18T08:14:05.805Z,34.58
2023-04-18T08:15:06.331Z,34.69
2023-04-18T08:16:05.943Z,34.68
2023-04-18T08:17:06.119Z,34.89
2023-04-18T08:18:06.022Z,35.02
2023-04-18T08:19:06.005Z,35.03
2023-04-18T08:20:06.319Z,35.11
2023-04-18T08:21:06.083Z,35.25
2023-04-18T08:22:06.098Z,35.42
2023-04-18T08:23:09.495Z,35.52
2023-04-18T08:24:06.137Z,35.55
2023-04-18T08:25:06.136Z,35.53
2023-04-18T08:26:06.301Z,35.62
2023-04-18T08:27:06.301Z,35.66
2023-04-18T08:28:06.116Z,35.77
2023-04-18T08:29:06.109Z,35.83
2023-04-18T08:30:06.310Z,35.87
2023-04-18T08:31:06.151Z,36.02
2023-04-18T08:32:07.223Z,36.12
2023-04-18T08:33:06.222Z,36.15
2023-04-18T08:34:06.239Z,36.26
2023-04-18T08:35:06.327Z,36.27
2023-04-18T08:36:06.319Z,36.40
2023-04-18T08:37:06.324Z,36.50
2023-04-18T08:38:06.344Z,36.56
2023-04-18T08:39:06.365Z,36.64
2023-04-18T08:40:06.817Z,37.41
2023-04-18T08:41:06.402Z,37.76
2023-04-18T08:42:06.428Z,37.39
2023-04-18T08:43:06.518Z,37.49
2023-04-18T08:44:06.826Z,37.47
2023-04-18T08:45:06.844Z,37.57
2023-04-18T08:46:06.559Z,37.56
2023-04-18T08:47:06.535Z,37.70
2023-04-18T08:48:06.592Z,37.72
2023-04-18T08:49:06.576Z,37.67
2023-04-18T08:50:06.837Z,37.71
2023-04-18T08:51:06.634Z,37.75
2023-04-18T08:52:06.628Z,37.79
2023-04-18T08:53:06.662Z,38.02
2023-04-18T08:54:06.843Z,37.99
2023-04-18T08:55:06.748Z,38.08
2023-04-18T08:56:06.767Z,38.38
2023-04-18T08:57:06.717Z,38.20
2023-04-18T08:58:06.764Z,38.35
2023-04-18T08:59:06.889Z,38.51
2023-04-18T09:00:06.773Z,38.49
2023-04-18T09:01:07.865Z,38.42
2023-04-18T09:02:06.828Z,39.00
2023-04-18T09:03:07.478Z,39.35
2023-04-18T09:04:06.918Z,39.36
2023-04-18T09:05:06.857Z,39.18
2023-04-18T09:06:06.873Z,39.16
2023-04-18T09:07:06.877Z,39.18
2023-04-18T09:08:07.317Z,39.35
2023-04-18T09:09:06.906Z,39.24
2023-04-18T09:10:06.912Z,39.32
2023-04-18T09:11:07.020Z,39.28
2023-04-18T09:12:06.960Z,39.36
2023-04-18T09:13:07.339Z,39.59
2023-04-18T09:14:06.972Z,39.41
2023-04-18T09:15:07.010Z,39.61
2023-04-18T09:16:07.004Z,39.58
2023-04-18T09:17:07.219Z,39.71
2023-04-18T09:19:07.007Z,39.62
2023-04-18T09:20:07.093Z,36.13
2023-04-18T09:21:07.329Z,34.99
2023-04-18T09:22:07.212Z,34.83
2023-04-18T09:23:07.247Z,35.78
2023-04-18T09:24:07.275Z,36.39
2023-04-18T09:25:07.327Z,36.39
2023-04-18T09:26:07.342Z,36.51
2023-04-18T09:27:07.827Z,36.06
2023-04-18T09:28:07.837Z,36.42
2023-04-18T09:29:07.428Z,36.55
2023-04-18T09:30:07.438Z,36.45
2023-04-18T09:31:07.526Z,36.29
2023-04-18T09:32:07.868Z,36.20
2023-04-18T09:33:07.928Z,36.23
2023-04-18T09:34:07.476Z,36.17
2023-04-18T09:35:07.533Z,36.19
2023-04-18T09:36:07.837Z,36.20
2023-04-18T09:37:07.771Z,36.18
2023-04-18T09:38:07.716Z,36.09
2023-04-18T09:39:07.750Z,36.10
2023-04-18T09:40:07.903Z,36.23
2023-04-18T09:41:08.349Z,36.31
2023-04-18T09:42:07.992Z,36.28
2023-04-18T09:43:08.018Z,35.96
2023-04-18T09:44:08.106Z,34.26
2023-04-18T09:45:08.162Z,33.89
2023-04-18T09:46:08.423Z,33.12
2023-04-18T09:47:08.401Z,32.52
2023-04-18T09:48:08.352Z,32.87
2023-04-18T09:49:10.423Z,32.47
2023-04-18T09:50:08.336Z,32.32
2023-04-18T09:51:08.345Z,32.46
2023-04-18T09:52:08.347Z,32.61
2023-04-18T09:53:08.359Z,32.90
2023-04-18T09:54:08.383Z,33.08
2023-04-18T09:55:08.409Z,32.85
2023-04-18T09:56:08.846Z,32.52
2023-04-18T09:57:08.393Z,32.87
2023-04-18T09:58:08.408Z,32.74
2023-04-18T09:59:08.466Z,33.08
2023-04-18T10:00:08.873Z,33.82
2023-04-18T10:01:08.574Z,32.60
2023-04-18T10:02:08.629Z,33.14
2023-04-18T10:03:08.730Z,33.19
2023-04-18T10:04:08.570Z,32.97
2023-04-18T10:05:08.557Z,32.87
2023-04-18T10:06:08.844Z,32.89
2023-04-18T10:07:08.630Z,32.77
2023-04-18T10:08:08.676Z,32.68
2023-04-18T10:09:08.581Z,32.28
2023-04-18T10:10:11.783Z,32.36
2023-04-18T10:11:08.910Z,32.04
2023-04-18T10:12:08.611Z,31.92
2023-04-18T10:13:08.655Z,32.43
2023-04-18T10:14:08.848Z,32.44
2023-04-18T10:15:08.849Z,32.36
2023-04-18T10:16:08.701Z,32.93
2023-04-18T10:17:08.896Z,32.53
2023-04-18T10:18:08.921Z,32.67
2023-04-18T10:19:08.764Z,32.55
2023-04-18T10:20:08.764Z,32.14
2023-04-18T10:21:08.772Z,32.01
2023-04-18T10:22:08.792Z,31.54
2023-04-18T10:23:08.878Z,31.90
2023-04-18T10:24:08.857Z,32.24
2023-04-18T10:25:08.928Z,31.93
2023-04-18T10:26:08.902Z,32.14
2023-04-18T10:27:09.383Z,32.76
2023-04-18T10:28:08.907Z,32.69
2023-04-18T10:29:09.354Z,32.68
2023-04-18T10:30:09.949Z,33.16
2023-04-18T10:31:09.011Z,33.17
2023-04-18T10:32:09.357Z,33.25
2023-04-18T10:33:18.416Z,33.54
2023-04-18T10:34:09.357Z,33.62
2023-04-18T10:35:09.106Z,34.26
2023-04-18T10:36:09.238Z,34.00
2023-04-18T10:37:09.353Z,33.97
2023-04-18T10:38:09.116Z,34.11
2023-04-18T10:39:09.124Z,34.15
2023-04-18T10:40:09.144Z,34.25
2023-04-18T10:41:09.362Z,34.34
2023-04-18T10:42:09.174Z,34.46
2023-04-18T10:43:09.384Z,34.55
2023-04-18T10:44:09.250Z,34.60
2023-04-18T10:45:09.196Z,34.75
2023-04-18T10:46:17.354Z,34.86
2023-04-18T10:47:09.223Z,34.89
2023-04-18T10:48:09.397Z,35.01
2023-04-18T10:49:09.214Z,35.07
2023-04-18T10:50:09.293Z,35.16
2023-04-18T10:51:09.288Z,35.24
2023-04-18T10:52:09.845Z,35.35
2023-04-18T10:53:09.420Z,35.38
2023-04-18T10:54:09.471Z,35.49
2023-04-18T10:55:09.522Z,35.64
2023-04-18T10:56:09.873Z,35.73
2023-04-18T10:57:09.614Z,35.83
2023-04-18T10:58:09.897Z,35.93
2023-04-18T10:59:09.707Z,36.04
2023-04-18T11:00:09.804Z,36.11
2023-04-18T11:01:10.625Z,36.17
2023-04-18T11:02:09.885Z,36.35
2023-04-18T11:03:09.995Z,36.42
2023-04-18T11:04:10.013Z,36.50
2023-04-18T11:05:10.011Z,36.54
2023-04-18T11:06:10.470Z,36.70
2023-04-18T11:07:10.072Z,36.87
2023-04-18T11:08:10.555Z,36.96
2023-04-18T11:09:10.096Z,37.11
2023-04-18T11:10:10.374Z,37.19
2023-04-18T11:11:10.374Z,37.28
2023-04-18T11:12:10.171Z,37.40
2023-04-18T11:13:10.198Z,37.48
2023-04-18T11:14:10.261Z,37.54
2023-04-18T11:15:10.274Z,37.73
2023-04-18T11:16:10.406Z,37.66
2023-04-18T11:17:10.305Z,37.64
2023-04-18T11:18:10.387Z,36.48
2023-04-18T11:19:10.370Z,36.90
2023-04-18T11:20:10.882Z,35.95
2023-04-18T11:21:10.440Z,37.20
2023-04-18T11:22:10.874Z,36.11
2023-04-18T11:23:10.671Z,35.74
2023-04-18T11:24:10.583Z,34.98
2023-04-18T11:25:10.635Z,34.47
2023-04-18T11:26:10.717Z,34.55
2023-04-18T11:27:10.889Z,34.40
2023-04-18T11:28:10.790Z,34.33
2023-04-18T11:29:10.821Z,35.08
2023-04-18T11:30:10.828Z,35.48
2023-04-18T11:31:10.914Z,35.59
2023-04-18T11:32:11.447Z,36.06
2023-04-18T11:33:11.519Z,36.04
2023-04-18T11:34:11.078Z,36.00
2023-04-18T11:35:11.127Z,36.17
2023-04-18T11:36:11.204Z,36.33
2023-04-18T11:37:11.296Z,36.55
2023-04-18T11:38:11.394Z,36.62
2023-04-18T11:39:11.399Z,36.81
2023-04-18T11:40:12.171Z,37.05
2023-04-18T11:41:11.453Z,37.06
2023-04-18T11:42:11.481Z,37.18
2023-04-18T11:43:11.885Z,37.32
2023-04-18T11:44:11.695Z,37.43
2023-04-18T11:45:11.631Z,37.58
2023-04-18T11:46:11.694Z,37.60
2023-04-18T11:47:11.897Z,37.54
2023-04-18T11:48:11.717Z,37.49
2023-04-18T11:49:11.754Z,37.39
2023-04-18T11:50:11.799Z,37.30
2023-04-18T11:51:11.825Z,37.24
2023-04-18T11:52:11.856Z,37.23
2023-04-18T11:53:11.884Z,37.18
2023-04-18T11:54:12.178Z,37.19
2023-04-18T11:55:11.983Z,37.21
2023-04-18T11:56:12.006Z,37.27
2023-04-18T11:57:12.392Z,37.34
2023-04-18T11:58:12.088Z,37.33
2023-04-18T11:59:12.135Z,37.34
2023-04-18T12:00:12.918Z,37.34
2023-04-18T12:01:12.218Z,37.35
2023-04-18T12:02:16.822Z,37.40
2023-04-18T12:03:13.986Z,37.42
2023-04-18T12:04:12.478Z,37.44
2023-04-18T12:05:12.726Z,37.49
2023-04-18T12:06:12.347Z,37.52
2023-04-18T12:07:12.392Z,37.48
2023-04-18T12:08:12.314Z,37.47
2023-04-18T12:09:12.316Z,37.45
2023-04-18T12:10:12.301Z,37.43
2023-04-18T12:11:12.549Z,37.40
2023-04-18T12:12:12.393Z,37.40
2023-04-18T12:13:12.360Z,37.37
2023-04-18T12:14:12.488Z,37.35
2023-04-18T12:15:12.348Z,37.35
2023-04-18T12:16:12.407Z,37.35
2023-04-18T12:17:12.435Z,37.32
2023-04-18T12:18:12.353Z,37.32
2023-04-18T12:19:19.804Z,37.31
2023-04-18T12:20:12.364Z,37.30
2023-04-18T12:21:12.346Z,37.24
2023-04-18T12:22:12.354Z,37.22
2023-04-18T12:23:12.406Z,37.21
2023-04-18T12:24:12.487Z,37.25
2023-04-18T12:25:12.359Z,37.18
2023-04-18T12:26:12.370Z,37.18
2023-04-18T12:27:12.455Z,37.15
2023-04-18T12:28:12.386Z,37.13
2023-04-18T12:29:12.582Z,37.10
2023-04-18T12:30:12.411Z,37.09
2023-04-18T12:31:12.466Z,37.04
2023-04-18T12:32:12.908Z,37.02
2023-04-18T12:33:12.921Z,36.99
2023-04-18T12:34:12.625Z,36.98
2023-04-18T12:35:12.455Z,36.96
2023-04-18T12:36:12.448Z,36.94
2023-04-18T12:37:12.916Z,36.93
2023-04-18T12:38:12.901Z,36.89
2023-04-18T12:39:12.472Z,36.87
2023-04-18T12:40:12.471Z,36.85
2023-04-18T12:41:12.480Z,36.85
2023-04-18T12:42:12.904Z,36.83
2023-04-18T12:43:12.508Z,36.79
2023-04-18T12:44:12.813Z,36.79
2023-04-18T12:45:12.518Z,36.77
2023-04-18T12:46:12.528Z,36.76
2023-04-18T12:47:12.911Z,36.75
2023-04-18T12:48:12.937Z,36.72
2023-04-18T12:49:12.523Z,36.73
2023-04-18T12:50:12.547Z,33.72
2023-04-18T12:51:12.557Z,33.83
2023-04-18T12:52:12.565Z,33.47
2023-04-18T12:53:12.577Z,33.66
2023-04-18T12:54:13.116Z,34.54